Terminal Aerodrome Forecast
Issued by NWS Cheyenne, WY

Home | Current Version | Previous Version | Text Only | Print | Product List | Glossary On
Versions: 1 2 3 4 5 6 7 8 9 10 11 12 13 14 15 16 17 18 19 20
000
FTUS45 KCYS 221733
TAFCYS
TAF
KCYS 221733Z 2218/2318 34010KT P6SM SCT090 BKN150
     FM222100 12010KT P6SM VCTS BKN080CB
     FM230200 16009KT P6SM SCT150
     FM230400 25007KT P6SM SCT080=

USA.gov is the U.S. government's official web portal to all federal, state and local government web resources and services.